Time;durP1;ratioP1;P1;durP2;ratioP2;P2;SDS_P1;SDS_P2;PMS_P1;PMS_P2;Temp;Humidity;BMP_temperature;BMP_pressure;BME280_temperature;BME280_humidity;BME280_pressure;Samples;Min_cycle;Max_cycle;Signal;HPM_P1;HPM_P2
2022/06/14 00:02:35;;;;;;;3.13;2.53;;;25.00;40.40;;;;;;8307487;28;20037;-40
2022/06/14 00:06:35;;;;;;;3.00;2.70;;;25.00;40.40;;;;;;8330411;28;20053;-40
2022/06/14 00:10:35;;;;;;;;;;;25.00;40.40;;;;;;8308127;28;20045;-39
2022/06/14 00:14:36;;;;;;;4.30;2.70;;;25.00;40.50;;;;;;8307336;28;19909;-40
2022/06/14 00:18:37;;;;;;;3.33;2.47;;;24.90;40.40;;;;;;8307130;28;20042;-40
2022/06/14 00:22:37;;;;;;;;;;;25.00;40.50;;;;;;8307715;28;20091;-39
2022/06/14 00:26:38;;;;;;;3.53;2.87;;;25.00;40.50;;;;;;8307347;28;19976;-40
2022/06/14 00:30:40;;;;;;;3.80;2.50;;;24.90;40.40;;;;;;8307408;28;20447;-40
2022/06/14 00:34:41;;;;;;;3.92;2.50;;;24.90;40.40;;;;;;8300944;28;20559;-39
2022/06/14 00:38:41;;;;;;;3.05;2.45;;;24.90;40.40;;;;;;8302360;28;20045;-40
2022/06/14 00:42:42;;;;;;;3.05;2.25;;;24.90;40.40;;;;;;8301769;28;20049;-38
2022/06/14 00:46:52;;;;;;;;;;;24.90;40.40;;;;;;8301994;28;20026;-39
2022/06/14 00:51:05;;;;;;;3.58;2.10;;;24.90;40.40;;;;;;8301703;28;19914;-40
2022/06/14 00:55:16;;;;;;;3.20;2.50;;;24.80;40.40;;;;;;8301438;28;20038;-40
2022/06/14 00:59:26;;;;;;;2.77;2.23;;;24.80;40.40;;;;;;8301953;28;20045;-40
2022/06/14 01:03:37;;;;;;;3.10;2.53;;;24.80;40.40;;;;;;8301117;28;20033;-39
2022/06/14 01:07:43;;;;;;;3.47;2.78;;;24.80;40.40;;;;;;8300878;28;20061;-39
2022/06/14 01:12:09;;;;;;;2.85;2.38;;;24.80;40.40;;;;;;8325284;28;20021;-39
2022/06/14 01:16:11;;;;;;;4.20;2.85;;;24.80;40.50;;;;;;8333923;28;20042;-40
2022/06/14 01:20:14;;;;;;;3.60;2.15;;;24.80;40.50;;;;;;8333776;28;20108;-40
2022/06/14 01:24:15;;;;;;;2.35;2.08;;;24.80;40.50;;;;;;8333206;28;20116;-39
2022/06/14 01:28:20;;;;;;;2.45;2.15;;;24.80;40.40;;;;;;8333025;28;20030;-40
2022/06/14 01:32:21;;;;;;;2.40;2.20;;;24.70;40.40;;;;;;8333270;28;20033;-40
2022/06/14 01:36:48;;;;;;;3.90;2.33;;;24.70;40.40;;;;;;8333458;28;20060;-40
2022/06/14 01:40:55;;;;;;;2.25;1.98;;;24.70;40.40;;;;;;8297959;28;20100;-39
2022/06/14 01:45:07;;;;;;;2.83;2.28;;;24.70;40.40;;;;;;8299581;28;20061;-40
2022/06/14 01:53:50;;;;;;;2.35;2.15;;;24.70;40.50;;;;;;8300112;28;20045;-40
2022/06/14 01:58:32;;;;;;;2.95;2.38;;;24.60;40.50;;;;;;8299893;28;20046;-40
2022/06/14 02:04:37;;;;;;;2.67;2.30;;;24.60;40.50;;;;;;8298599;28;20364;-40
2022/06/14 02:07:28;;;;;;;;;;;24.60;40.50;;;;;;8299382;28;20038;-40
2022/06/14 02:11:33;;;;;;;2.45;2.08;;;24.60;40.50;;;;;;8300121;28;20257;-41
2022/06/14 02:15:45;;;;;;;3.50;2.25;;;24.60;40.50;;;;;;8299146;28;20026;-41
2022/06/14 02:19:54;;;;;;;1.90;1.60;;;24.50;40.50;;;;;;8298923;28;20030;-40
2022/06/14 02:24:05;;;;;;;3.00;2.30;;;24.50;40.50;;;;;;8299138;28;20026;-40
2022/06/14 02:28:09;;;;;;;;;;;24.50;40.50;;;;;;8299268;28;20040;-40
2022/06/14 02:32:35;;;;;;;4.22;2.28;;;24.50;40.50;;;;;;8298510;28;19906;-40
2022/06/14 02:36:44;;;;;;;2.58;2.10;;;24.50;40.50;;;;;;8298735;28;20118;-40
2022/06/14 02:40:51;;;;;;;2.83;1.90;;;24.50;40.50;;;;;;8327546;28;20025;-41
2022/06/14 02:45:17;;;;;;;2.17;1.88;;;24.50;40.50;;;;;;8331182;28;20040;-40
2022/06/14 02:49:29;;;;;;;1.95;1.75;;;24.50;41.10;;;;;;8331006;28;20030;-41
2022/06/14 02:53:50;;;;;;;3.65;2.17;;;24.50;40.60;;;;;;8330490;28;20529;-41
2022/06/14 02:58:03;;;;;;;4.10;2.13;;;24.40;40.50;;;;;;8330032;28;20041;-41
2022/06/14 03:02:14;;;;;;;3.35;1.98;;;24.40;40.50;;;;;;8330463;28;20041;-40
2022/06/14 03:06:23;;;;;;;;;;;24.40;40.50;;;;;;8330571;28;20041;-40
2022/06/14 03:10:35;;;;;;;2.10;1.90;;;24.40;40.50;;;;;;8330253;28;19909;-40
2022/06/14 03:14:44;;;;;;;2.17;1.80;;;24.40;40.50;;;;;;8330140;28;20476;-40
2022/06/14 03:18:55;;;;;;;2.17;1.88;;;24.40;40.50;;;;;;8330331;28;20045;-40
2022/06/14 03:23:26;;;;;;;2.10;1.88;;;24.40;40.60;;;;;;8330027;28;20051;-40
2022/06/14 03:27:35;;;;;;;2.45;1.90;;;24.30;40.50;;;;;;8330850;28;20033;-40
2022/06/14 03:31:45;;;;;;;2.33;1.95;;;24.30;40.50;;;;;;8330513;28;20039;-40
2022/06/14 03:35:48;;;;;;;2.40;1.80;;;24.30;40.50;;;;;;8329929;28;20033;-40
2022/06/14 03:39:58;;;;;;;2.42;2.05;;;24.30;40.50;;;;;;8329769;28;20030;-40
2022/06/14 03:44:02;;;;;;;2.30;1.65;;;24.30;40.50;;;;;;8329783;28;20052;-40
2022/06/14 03:48:05;;;;;;;2.13;1.90;;;24.30;40.50;;;;;;8329482;28;20417;-40
2022/06/14 03:52:19;;;;;;;3.88;2.05;;;24.30;40.50;;;;;;8329751;28;20431;-40
2022/06/14 03:56:33;;;;;;;2.70;2.10;;;24.20;40.50;;;;;;8329974;28;20458;-40
2022/06/14 04:01:09;;;;;;;3.60;1.92;;;24.20;40.50;;;;;;8330108;28;20017;-40
2022/06/14 04:05:24;;;;;;;2.33;1.60;;;24.30;40.50;;;;;;8325608;28;20042;-40
2022/06/14 04:09:44;;;;;;;1.98;1.77;;;24.20;40.50;;;;;;8334017;28;20034;-40
2022/06/14 04:13:48;;;;;;;2.15;1.80;;;24.20;40.50;;;;;;8335688;28;20128;-40
2022/06/14 04:22:54;;;;;;;3.03;2.20;;;24.20;40.50;;;;;;8335523;28;20118;-41
2022/06/14 04:27:11;;;;;;;2.10;1.70;;;24.10;40.50;;;;;;8335183;28;20453;-41
2022/06/14 04:31:23;;;;;;;2.85;1.90;;;24.10;40.50;;;;;;8334990;28;20541;-41
2022/06/14 04:35:52;;;;;;;2.58;1.90;;;24.10;40.50;;;;;;8334902;28;20029;-41
2022/06/14 04:40:03;;;;;;;2.70;1.90;;;24.10;40.50;;;;;;8327215;28;20059;-41
2022/06/14 04:44:18;;;;;;;2.55;1.75;;;24.10;41.00;;;;;;8334448;28;20033;-40
2022/06/14 04:48:46;;;;;;;2.50;1.85;;;24.10;40.50;;;;;;8334755;28;20109;-40
2022/06/14 04:52:54;;;;;;;1.60;1.50;;;24.10;40.50;;;;;;8334991;28;20536;-41
2022/06/14 04:57:02;;;;;;;2.65;1.83;;;24.10;40.50;;;;;;8334759;28;20041;-40
2022/06/14 05:01:29;;;;;;;2.40;1.70;;;24.10;40.50;;;;;;8334702;28;20025;-40
2022/06/14 05:05:38;;;;;;;2.10;1.60;;;24.10;40.50;;;;;;8329156;28;20052;-40
2022/06/14 05:09:44;;;;;;;2.83;2.22;;;24.10;40.50;;;;;;8333795;28;20030;-39
2022/06/14 05:13:57;;;;;;;1.80;1.65;;;24.10;40.50;;;;;;8334226;28;20037;-39
2022/06/14 05:18:08;;;;;;;1.92;1.70;;;24.10;40.40;;;;;;8333243;28;20041;-40
2022/06/14 05:22:31;;;;;;;3.40;1.95;;;24.10;40.30;;;;;;8333978;28;20041;-40
2022/06/14 05:26:38;;;;;;;2.20;1.90;;;24.20;40.10;;;;;;8334293;28;20073;-41
2022/06/14 05:31:06;;;;;;;2.05;1.83;;;24.30;39.90;;;;;;8333303;28;20029;-41
2022/06/14 05:35:36;;;;;;;2.25;1.73;;;24.50;39.50;;;;;;8333149;28;20067;-41
2022/06/14 05:39:44;;;;;;;2.35;1.88;;;24.50;39.30;;;;;;8332531;28;20045;-41
2022/06/14 05:43:52;;;;;;;2.22;1.75;;;24.50;39.30;;;;;;8333250;28;20053;-40
2022/06/14 05:48:09;;;;;;;2.28;2.03;;;24.50;39.40;;;;;;8332973;28;20462;-40
2022/06/14 05:52:28;;;;;;;2.35;1.90;;;24.40;39.50;;;;;;8332919;28;20029;-40
2022/06/14 05:56:35;;;;;;;4.47;1.73;;;24.40;39.60;;;;;;8332276;28;20076;-40
2022/06/14 06:00:59;;;;;;;2.85;1.80;;;24.30;39.70;;;;;;8332358;28;20528;-41
2022/06/14 06:05:42;;;;;;;2.00;1.80;;;24.30;39.80;;;;;;8332305;28;20037;-40
2022/06/14 06:10:05;;;;;;;2.10;1.80;;;24.20;39.80;;;;;;8332021;28;20120;-40
2022/06/14 06:14:18;;;;;;;2.63;2.03;;;24.20;39.90;;;;;;8331397;28;20120;-40
2022/06/14 06:18:35;;;;;;;2.50;2.03;;;24.20;40.00;;;;;;8332299;28;20037;-40
2022/06/14 06:22:49;;;;;;;2.22;1.75;;;24.10;39.90;;;;;;8331467;28;20049;-40
2022/06/14 06:26:56;;;;;;;2.72;1.80;;;24.20;40.00;;;;;;8331862;28;20026;-40
2022/06/14 06:31:00;;;;;;;1.95;1.77;;;24.10;40.10;;;;;;8330855;28;20041;-40
2022/06/14 06:35:02;;;;;;;2.03;1.70;;;24.10;40.10;;;;;;8331360;28;20060;-40
2022/06/14 06:39:24;;;;;;;2.15;1.80;;;24.10;40.10;;;;;;8331103;28;20391;-40
2022/06/14 06:43:27;;;;;;;1.85;1.48;;;24.10;40.10;;;;;;8331221;28;20610;-40
2022/06/14 06:48:00;;;;;;;2.20;1.85;;;24.10;40.10;;;;;;8330938;28;20034;-40
2022/06/14 06:52:04;;;;;;;2.17;1.90;;;24.10;40.10;;;;;;8327762;28;20450;-40
2022/06/14 06:56:11;;;;;;;1.98;1.77;;;24.10;40.20;;;;;;8330578;28;20056;-40
2022/06/14 07:00:16;;;;;;;2.75;2.10;;;24.10;40.10;;;;;;8330628;28;20490;-40
2022/06/14 07:08:56;;;;;;;2.88;1.67;;;24.00;40.10;;;;;;8308241;28;20145;-40
2022/06/14 07:13:13;;;;;;;2.97;2.10;;;24.00;40.20;;;;;;8297697;28;20037;-40
2022/06/14 07:17:20;;;;;;;2.15;1.83;;;24.00;40.10;;;;;;8297451;28;20042;-40
2022/06/14 07:21:36;;;;;;;2.70;2.10;;;24.10;40.20;;;;;;8297559;28;20018;-40
2022/06/14 07:25:49;;;;;;;2.47;1.70;;;24.00;40.10;;;;;;8297686;28;20061;-40
2022/06/14 07:30:12;;;;;;;2.17;1.77;;;24.10;40.20;;;;;;8297388;28;20497;-40
2022/06/14 07:34:14;;;;;;;1.90;1.70;;;24.00;40.20;;;;;;8297956;28;20034;-40
2022/06/14 07:38:20;;;;;;;2.20;2.00;;;24.00;40.20;;;;;;8297381;28;20368;-38
2022/06/14 07:42:30;;;;;;;2.88;1.90;;;24.00;40.20;;;;;;8326141;28;20055;-39
2022/06/14 07:46:43;;;;;;;2.90;1.67;;;24.00;40.20;;;;;;8336372;28;20030;-39
2022/06/14 07:50:49;;;;;;;2.10;1.90;;;24.00;40.20;;;;;;8336435;28;20022;-39
2022/06/14 07:54:57;;;;;;;1.80;1.70;;;24.10;40.20;;;;;;8336183;28;20029;-39
2022/06/14 07:59:14;;;;;;;2.97;1.95;;;24.10;40.20;;;;;;8336152;28;20025;-39
2022/06/14 08:03:51;;;;;;;2.75;2.03;;;24.10;40.20;;;;;;8335881;28;20117;-39
2022/06/14 08:07:55;;;;;;;2.60;2.00;;;24.10;40.20;;;;;;8336343;28;20034;-39
2022/06/14 08:11:59;;;;;;;2.22;2.00;;;24.10;40.20;;;;;;8335572;28;20033;-40
2022/06/14 08:16:03;;;;;;;2.90;1.75;;;24.20;40.30;;;;;;8335524;28;20033;-41
2022/06/14 08:20:22;;;;;;;1.67;1.48;;;24.20;40.20;;;;;;8335782;28;20045;-41
2022/06/14 08:24:29;;;;;;;3.20;1.80;;;24.20;40.30;;;;;;8335430;28;20075;-41
2022/06/14 08:28:47;;;;;;;3.78;2.30;;;24.20;40.20;;;;;;8361342;28;20116;-40
2022/06/14 08:33:01;;;;;;;2.25;2.00;;;24.20;40.30;;;;;;8314905;28;20028;-40
2022/06/14 08:37:26;;;;;;;2.85;1.77;;;24.20;40.30;;;;;;8302004;28;20054;-40
2022/06/14 08:41:49;;;;;;;3.85;1.80;;;24.30;40.30;;;;;;8302508;28;20378;-41
2022/06/14 08:46:18;;;;;;;2.90;1.90;;;24.30;40.30;;;;;;8301917;28;20061;-40
2022/06/14 08:50:34;;;;;;;2.28;1.85;;;24.30;40.30;;;;;;8302000;28;20030;-40
2022/06/14 08:55:06;;;;;;;2.08;1.88;;;24.30;40.30;;;;;;8301039;28;20529;-40
2022/06/14 08:59:28;;;;;;;2.78;1.70;;;24.30;40.30;;;;;;8302255;28;20057;-40
2022/06/14 09:03:38;;;;;;;2.55;1.90;;;24.30;40.30;;;;;;8331852;28;20052;-40
2022/06/14 09:08:16;;;;;;;2.28;1.65;;;24.40;40.40;;;;;;8334366;28;20068;-40
2022/06/14 09:12:37;;;;;;;2.35;1.65;;;24.40;40.30;;;;;;8333881;28;20025;-40
2022/06/14 09:16:50;;;;;;;3.15;1.80;;;24.40;40.30;;;;;;8334404;28;20441;-39
2022/06/14 09:21:13;;;;;;;2.83;1.88;;;24.40;40.40;;;;;;8333637;28;20386;-40
2022/06/14 09:25:40;;;;;;;2.05;1.85;;;24.40;40.30;;;;;;8333424;28;20036;-41
2022/06/14 09:30:12;;;;;;;3.38;1.80;;;24.50;40.30;;;;;;8333437;28;20108;-40
2022/06/14 09:34:29;;;;;;;2.35;2.00;;;24.50;40.40;;;;;;8333367;28;20029;-41
2022/06/14 09:38:35;;;;;;;2.42;1.90;;;24.50;40.90;;;;;;8332972;28;20486;-39
2022/06/14 09:43:06;;;;;;;2.80;1.98;;;24.50;40.40;;;;;;8333499;28;20409;-39
2022/06/14 09:47:37;;;;;;;2.40;1.87;;;24.60;40.40;;;;;;8332911;28;20490;-39
2022/06/14 09:52:03;;;;;;;1.98;1.73;;;24.50;40.40;;;;;;8332566;28;20036;-39
2022/06/14 09:56:16;;;;;;;2.50;1.85;;;24.60;40.40;;;;;;8332368;28;20063;-40
2022/06/14 10:00:30;;;;;;;2.08;1.67;;;24.60;40.40;;;;;;8332806;28;20123;-39
2022/06/14 10:04:54;;;;;;;2.75;2.05;;;24.60;40.30;;;;;;8332812;28;20041;-40
2022/06/14 10:09:20;;;;;;;3.58;1.90;;;24.60;40.30;;;;;;8330849;28;20026;-40
2022/06/14 10:13:49;;;;;;;2.30;2.00;;;24.70;40.30;;;;;;8331902;28;20120;-40
2022/06/14 10:18:14;;;;;;;2.55;1.90;;;24.70;40.30;;;;;;8331704;28;20508;-40
2022/06/14 10:22:20;;;;;;;3.10;1.92;;;24.70;40.30;;;;;;8331582;28;20029;-40
2022/06/14 10:31:21;;;;;;;3.33;2.25;;;24.80;40.20;;;;;;8331505;28;20152;-40
2022/06/14 10:35:43;;;;;;;1.98;1.80;;;24.80;40.20;;;;;;8328232;28;20042;-40
2022/06/14 10:40:04;;;;;;;2.35;1.85;;;24.80;40.20;;;;;;8331434;28;20056;-40
2022/06/14 10:44:23;;;;;;;;;;;24.80;40.20;;;;;;8331477;28;20040;-40
2022/06/14 10:48:35;;;;;;;3.22;2.50;;;24.80;40.20;;;;;;8330966;28;19908;-39
2022/06/14 10:52:47;;;;;;;2.10;1.80;;;24.80;40.20;;;;;;8331231;28;20033;-40
2022/06/14 10:56:56;;;;;;;;;;;24.90;40.20;;;;;;8331469;28;20106;-39
2022/06/14 11:01:17;;;;;;;2.67;2.05;;;24.90;40.20;;;;;;8331243;28;19913;-40
2022/06/14 11:05:45;;;;;;;2.25;1.92;;;24.90;40.10;;;;;;8330985;28;20107;-40
2022/06/14 11:10:12;;;;;;;2.85;2.05;;;25.00;40.10;;;;;;8330951;28;20029;-40
2022/06/14 11:14:48;;;;;;;2.10;1.90;;;25.00;40.00;;;;;;8330249;28;20036;-40
2022/06/14 11:19:09;;;;;;;2.10;1.90;;;25.00;40.10;;;;;;8329639;28;20111;-39
2022/06/14 11:23:39;;;;;;;2.38;2.10;;;25.00;40.10;;;;;;8330539;28;20033;-40
2022/06/14 11:27:53;;;;;;;2.78;2.17;;;25.00;40.00;;;;;;8330664;28;20425;-40
2022/06/14 11:32:03;;;;;;;2.35;1.70;;;25.10;40.10;;;;;;8329979;28;20116;-40
2022/06/14 11:36:35;;;;;;;2.40;2.10;;;25.10;40.00;;;;;;8330083;28;20037;-39
2022/06/14 11:40:43;;;;;;;3.15;2.03;;;25.10;40.00;;;;;;8330276;28;20036;-40
2022/06/14 11:45:00;;;;;;;2.72;2.13;;;25.10;39.90;;;;;;8329948;28;20021;-40
2022/06/14 11:49:03;;;;;;;2.92;2.20;;;25.20;40.10;;;;;;8329755;28;20060;-40
2022/06/14 11:53:27;;;;;;;3.13;2.42;;;25.20;40.00;;;;;;8330236;28;20128;-40
2022/06/14 11:57:54;;;;;;;2.17;1.98;;;25.20;40.00;;;;;;8329598;28;20049;-39
2022/06/14 12:02:31;;;;;;;4.32;2.42;;;25.20;40.00;;;;;;8329596;28;20033;-40
2022/06/14 12:06:36;;;;;;;2.83;2.10;;;25.30;40.00;;;;;;8329741;28;20083;-40
2022/06/14 12:10:51;;;;;;;2.78;2.28;;;25.30;40.00;;;;;;8329670;28;20021;-40
2022/06/14 12:15:00;;;;;;;3.67;2.75;;;25.30;40.00;;;;;;8329673;28;20033;-40
2022/06/14 12:19:10;;;;;;;2.28;1.98;;;25.40;40.00;;;;;;8329340;28;20068;-39
2022/06/14 12:23:19;;;;;;;2.95;2.17;;;25.40;40.00;;;;;;8329086;28;20060;-39
2022/06/14 12:27:20;;;;;;;3.10;2.47;;;25.40;40.00;;;;;;8329028;28;20167;-39
2022/06/14 12:31:43;;;;;;;2.72;2.20;;;25.40;40.00;;;;;;8334715;28;20021;-40
2022/06/14 12:35:56;;;;;;;2.58;2.30;;;25.40;39.90;;;;;;8335191;28;20040;-40
2022/06/14 12:40:06;;;;;;;2.35;2.03;;;25.50;40.00;;;;;;8335172;28;20065;-40
2022/06/14 12:44:31;;;;;;;3.78;3.08;;;25.50;40.00;;;;;;8334776;28;20221;-40
2022/06/14 12:48:40;;;;;;;3.40;2.50;;;25.50;40.00;;;;;;8334472;28;20498;-40
2022/06/14 12:52:47;;;;;;;3.05;2.15;;;25.50;39.90;;;;;;8334285;28;20040;-40
2022/06/14 12:56:47;;;;;;;2.63;2.22;;;25.60;40.00;;;;;;8334046;28;20103;-40
2022/06/14 13:00:55;;;;;;;2.85;2.20;;;25.60;40.00;;;;;;8334288;28;20017;-40
2022/06/14 13:04:59;;;;;;;2.58;2.35;;;25.60;40.00;;;;;;8333952;28;20045;-39
2022/06/14 13:09:16;;;;;;;3.70;2.58;;;25.60;40.00;;;;;;8334148;28;20030;-40
2022/06/14 13:13:39;;;;;;;2.65;2.40;;;25.60;40.00;;;;;;8332697;28;20051;-40
2022/06/14 13:17:58;;;;;;;2.35;2.10;;;25.60;39.90;;;;;;8333543;28;20057;-40
2022/06/14 13:22:13;;;;;;;3.28;2.40;;;25.70;40.00;;;;;;8333945;28;20018;-40
2022/06/14 13:26:43;;;;;;;3.13;2.50;;;25.70;40.00;;;;;;8333750;28;20034;-40
2022/06/14 13:31:28;;;;;;;3.38;2.45;;;25.70;40.00;;;;;;8333683;28;20364;-40
2022/06/14 13:36:04;;;;;;;3.50;2.60;;;25.70;39.90;;;;;;8333543;28;20057;-39
2022/06/14 13:40:10;;;;;;;3.15;2.60;;;25.70;39.90;;;;;;8332637;28;20042;-40
2022/06/14 13:44:19;;;;;;;3.95;2.90;;;25.70;39.90;;;;;;8332946;28;20037;-40
2022/06/14 13:48:45;;;;;;;3.58;2.40;;;25.70;39.90;;;;;;8333126;28;20119;-40
2022/06/14 13:52:55;;;;;;;3.05;2.55;;;25.70;39.90;;;;;;8325228;28;20039;-40
2022/06/14 13:57:13;;;;;;;3.33;2.70;;;25.80;40.00;;;;;;8332203;28;20429;-39
2022/06/14 14:01:37;;;;;;;3.60;2.47;;;25.80;40.00;;;;;;8332980;28;20049;-39
2022/06/14 14:05:45;;;;;;;4.03;2.90;;;25.80;40.00;;;;;;8332648;28;20047;-39
2022/06/14 14:10:31;;;;;;;3.25;2.65;;;25.80;40.00;;;;;;8332222;28;20033;-40
2022/06/14 14:14:47;;;;;;;4.60;3.00;;;25.80;39.90;;;;;;8321968;28;20037;-40
2022/06/14 14:19:03;;;;;;;3.05;2.58;;;25.80;39.90;;;;;;8331534;28;20071;-39
2022/06/14 14:23:22;;;;;;;3.90;2.67;;;25.80;39.90;;;;;;8331514;28;20037;-40
2022/06/14 14:27:49;;;;;;;4.10;2.35;;;25.90;40.00;;;;;;8331342;28;20045;-40
2022/06/14 14:32:07;;;;;;;3.50;2.72;;;25.90;39.90;;;;;;8331476;28;20033;-40
2022/06/14 14:36:42;;;;;;;4.35;2.90;;;25.90;39.90;;;;;;8331378;28;20116;-41
2022/06/14 14:45:18;;;;;;;3.47;2.60;;;25.90;39.90;;;;;;8331012;28;20083;-40
2022/06/14 14:49:29;;;;;;;3.70;2.80;;;25.90;40.40;;;;;;8330762;28;20037;-39
2022/06/14 14:53:43;;;;;;;3.00;2.50;;;25.90;39.90;;;;;;8330365;28;20040;-40
2022/06/14 14:58:02;;;;;;;4.05;2.95;;;25.90;39.90;;;;;;8330565;28;20043;-39
2022/06/14 15:06:47;;;;;;;3.43;2.50;;;25.90;39.90;;;;;;8331308;28;20049;-40
2022/06/14 15:10:58;;;;;;;3.28;2.38;;;25.90;39.90;;;;;;8330602;28;20033;-39
2022/06/14 15:15:01;;;;;;;3.40;2.58;;;25.90;39.80;;;;;;8330166;28;20379;-39
2022/06/14 15:23:48;;;;;;;2.95;2.40;;;25.90;39.80;;;;;;8330072;28;20394;-40
2022/06/14 15:28:08;;;;;;;4.10;2.80;;;25.90;39.80;;;;;;8328691;28;20056;-39
2022/06/14 15:32:12;;;;;;;4.15;2.92;;;25.90;39.80;;;;;;8330125;28;20057;-39
2022/06/14 15:36:49;;;;;;;3.97;2.60;;;25.90;39.80;;;;;;8329751;28;20025;-40
2022/06/14 15:41:13;;;;;;;4.32;2.75;;;25.90;39.90;;;;;;8280953;28;20057;-39
2022/06/14 15:45:30;;;;;;;3.38;2.80;;;25.90;39.90;;;;;;8296992;28;20036;-40
2022/06/14 15:49:51;;;;;;;3.75;2.45;;;25.90;39.80;;;;;;8296802;28;20034;-39
2022/06/14 15:53:52;;;;;;;3.75;3.10;;;25.90;39.90;;;;;;8296748;28;20037;-39
2022/06/14 15:58:16;;;;;;;3.30;2.45;;;25.90;39.90;;;;;;8296790;28;20103;-40
2022/06/14 16:02:24;;;;;;;4.15;3.13;;;25.90;39.90;;;;;;8298480;28;20032;-39
2022/06/14 16:06:36;;;;;;;3.55;2.65;;;26.00;39.90;;;;;;8302739;28;20053;-40
2022/06/14 16:10:42;;;;;;;3.35;3.00;;;25.90;39.90;;;;;;8302967;28;20026;-40
2022/06/14 16:15:07;;;;;;;3.42;2.70;;;25.90;39.80;;;;;;8303186;28;20029;-40
2022/06/14 16:19:28;;;;;;;4.57;2.88;;;26.00;39.90;;;;;;8302538;28;20050;-41
2022/06/14 16:23:33;;;;;;;3.63;2.97;;;25.90;39.80;;;;;;8302560;28;20053;-40
2022/06/14 16:27:34;;;;;;;3.08;2.70;;;26.00;39.90;;;;;;8302780;28;20088;-40
2022/06/14 16:31:42;;;;;;;3.30;2.80;;;25.90;39.80;;;;;;8302400;28;20418;-40
2022/06/14 16:35:50;;;;;;;3.42;2.78;;;25.90;39.80;;;;;;8302267;28;20418;-40
2022/06/14 16:40:02;;;;;;;3.50;2.75;;;25.90;39.80;;;;;;8302596;28;20042;-39
2022/06/14 16:44:30;;;;;;;3.50;2.80;;;26.00;39.90;;;;;;8301932;28;20164;-39
2022/06/14 16:48:45;;;;;;;3.85;2.75;;;26.00;39.90;;;;;;8301711;28;20028;-40
2022/06/14 16:53:02;;;;;;;3.08;2.70;;;26.00;39.90;;;;;;8301835;28;20032;-40
2022/06/14 16:57:18;;;;;;;3.05;2.47;;;26.00;40.00;;;;;;8301614;28;20042;-40
2022/06/14 17:01:35;;;;;;;3.15;2.50;;;26.00;40.00;;;;;;8329514;28;20025;-40
2022/06/14 17:06:09;;;;;;;3.10;2.63;;;25.90;39.90;;;;;;8333787;28;20437;-40
2022/06/14 17:10:39;;;;;;;3.50;2.42;;;26.00;39.90;;;;;;8334185;28;20038;-39
2022/06/14 17:15:01;;;;;;;3.15;2.50;;;25.90;39.90;;;;;;8332855;28;20159;-40
2022/06/14 17:19:19;;;;;;;4.47;2.70;;;26.00;40.00;;;;;;8333909;28;20475;-39
2022/06/14 17:23:24;;;;;;;4.10;2.92;;;25.90;39.90;;;;;;8333581;28;20060;-39
2022/06/14 17:32:16;;;;;;;3.38;2.83;;;25.90;39.90;;;;;;8300947;28;20486;-39
2022/06/14 17:36:41;;;;;;;3.35;2.75;;;25.90;39.90;;;;;;8300218;28;20033;-39
2022/06/14 17:40:47;;;;;;;3.42;2.85;;;25.90;39.90;;;;;;8320830;28;20026;-39
2022/06/14 17:45:13;;;;;;;2.88;2.58;;;25.90;39.90;;;;;;8333108;28;20067;-39
2022/06/14 17:49:42;;;;;;;3.20;2.70;;;25.90;39.90;;;;;;8332594;28;20502;-39
2022/06/14 17:54:13;;;;;;;3.95;2.90;;;25.90;39.90;;;;;;8332484;28;20017;-39
2022/06/14 17:58:22;;;;;;;;;;;25.90;40.00;;;;;;8333456;28;20058;-39
2022/06/14 18:02:30;;;;;;;3.47;2.80;;;25.90;40.00;;;;;;8332397;28;20301;-39
2022/06/14 18:06:55;;;;;;;3.60;2.80;;;25.90;40.00;;;;;;8332418;28;20037;-40
2022/06/14 18:10:56;;;;;;;3.15;2.65;;;25.90;40.00;;;;;;8332555;28;20033;-40
2022/06/14 18:14:56;;;;;;;;;;;25.90;40.00;;;;;;8332822;28;20417;-39
2022/06/14 18:23:29;;;;;;;4.75;2.72;;;25.90;40.00;;;;;;8331360;28;20156;-40
2022/06/14 18:27:32;;;;;;;2.97;2.60;;;25.90;39.60;;;;;;8327066;28;20463;-40
2022/06/14 18:31:38;;;;;;;5.13;2.85;;;25.90;40.00;;;;;;8328215;28;20022;-40
2022/06/14 18:36:01;;;;;;;3.50;2.60;;;25.80;40.00;;;;;;8328755;28;20029;-39
2022/06/14 18:40:16;;;;;;;3.58;2.45;;;25.80;39.90;;;;;;8329580;28;20037;-40
2022/06/14 18:44:25;;;;;;;4.35;2.90;;;25.70;38.90;;;;;;8330717;28;20084;-39
2022/06/14 18:48:33;;;;;;;3.38;2.63;;;25.60;38.10;;;;;;8331032;28;20029;-39
2022/06/14 18:52:37;;;;;;;3.75;2.53;;;25.50;38.10;;;;;;8330981;28;20086;-39
2022/06/14 18:56:44;;;;;;;4.07;2.65;;;25.50;37.80;;;;;;8330501;28;20041;-39
2022/06/14 19:00:50;;;;;;;4.18;2.47;;;25.40;37.30;;;;;;8330787;28;20140;-39
2022/06/14 19:04:51;;;;;;;6.15;2.35;;;25.40;37.70;;;;;;8330554;28;20092;-39
2022/06/14 19:25:35;;;;;;;4.38;3.47;;;25.30;36.20;;;;;;8498701;27;1231880;-40
2022/06/14 19:29:42;;;;;;;5.53;3.10;;;25.40;37.70;;;;;;8486010;28;20043;-40
2022/06/14 19:34:02;;;;;;;8.18;3.78;;;25.30;38.00;;;;;;8492643;27;20019;-40
2022/06/14 19:38:07;;;;;;;6.38;3.30;;;25.20;38.20;;;;;;8492618;27;20080;-40
2022/06/14 19:42:09;;;;;;;5.80;2.70;;;25.20;38.20;;;;;;8492337;27;20032;-40
2022/06/14 19:46:27;;;;;;;7.43;2.80;;;25.10;38.10;;;;;;8482361;27;20020;-41
2022/06/14 19:50:35;;;;;;;5.90;2.85;;;25.10;37.90;;;;;;8492064;27;20031;-42
2022/06/14 19:54:38;;;;;;;6.20;3.42;;;25.00;37.80;;;;;;8491992;27;20062;-44
2022/06/14 19:58:43;;;;;;;7.53;3.63;;;25.00;38.10;;;;;;8491799;28;20052;-41
2022/06/14 20:02:44;;;;;;;5.97;4.03;;;24.90;38.90;;;;;;8491496;27;20046;-42
2022/06/14 20:07:12;;;;;;;5.13;3.75;;;24.80;39.00;;;;;;8491447;28;20023;-42
2022/06/14 20:11:28;;;;;;;4.03;3.15;;;24.80;39.40;;;;;;8488828;27;20122;-42
2022/06/14 20:15:37;;;;;;;6.13;2.88;;;24.70;39.00;;;;;;8491983;27;20429;-42
2022/06/14 20:19:59;;;;;;;3.65;2.35;;;24.70;38.60;;;;;;8491438;27;20016;-42
2022/06/14 20:24:05;;;;;;;5.90;3.08;;;24.70;38.30;;;;;;8468149;28;20103;-42
2022/06/14 20:28:08;;;;;;;6.07;3.13;;;24.60;38.70;;;;;;8469058;28;20032;-42
2022/06/14 20:32:09;;;;;;;4.57;3.17;;;24.60;39.30;;;;;;8468595;28;20059;-41
2022/06/14 20:36:25;;;;;;;4.72;3.22;;;24.60;39.60;;;;;;8467211;27;20031;-41
2022/06/14 20:40:32;;;;;;;5.20;3.13;;;24.50;39.50;;;;;;8461959;28;20537;-41
2022/06/14 20:44:37;;;;;;;3.60;3.00;;;24.50;39.30;;;;;;8466531;28;20161;-41
2022/06/14 20:48:44;;;;;;;4.07;3.08;;;24.40;39.30;;;;;;8467301;28;20032;-41
2022/06/14 20:52:46;;;;;;;6.05;3.22;;;24.40;39.30;;;;;;8459575;28;20042;-41
2022/06/14 20:56:57;;;;;;;7.97;3.35;;;24.30;39.30;;;;;;8465602;28;20452;-40
2022/06/14 21:00:58;;;;;;;3.67;3.15;;;24.30;39.30;;;;;;8467062;27;20059;-42
2022/06/14 21:04:59;;;;;;;6.60;3.03;;;24.30;39.40;;;;;;8450878;28;20028;-41
2022/06/14 21:09:16;;;;;;;6.60;3.35;;;24.20;39.40;;;;;;8464832;28;20098;-41
2022/06/14 21:13:17;;;;;;;6.00;2.92;;;24.20;39.20;;;;;;8462624;28;20031;-41
2022/06/14 21:17:22;;;;;;;7.28;3.25;;;24.20;39.50;;;;;;8462788;28;20115;-41
2022/06/14 21:21:29;;;;;;;6.10;2.80;;;24.20;39.50;;;;;;8462825;27;20481;-40
2022/06/14 21:25:34;;;;;;;3.83;3.42;;;24.10;39.40;;;;;;8460261;27;20047;-40
2022/06/14 21:29:42;;;;;;;9.77;2.90;;;24.00;39.30;;;;;;8463279;28;20035;-41
2022/06/14 21:34:02;;;;;;;6.28;3.15;;;24.00;39.50;;;;;;8462839;28;20114;-40
2022/06/14 21:38:07;;;;;;;3.55;3.05;;;23.90;39.30;;;;;;8461939;28;20036;-40
2022/06/14 21:42:29;;;;;;;6.18;3.28;;;23.90;39.30;;;;;;8465118;27;20031;-41
2022/06/14 21:46:35;;;;;;;8.52;3.75;;;23.80;39.30;;;;;;8464145;28;20036;-41
2022/06/14 21:50:41;;;;;;;5.10;2.80;;;23.90;39.30;;;;;;8462237;28;20517;-40
2022/06/14 21:54:47;;;;;;;6.95;3.15;;;24.10;39.10;;;;;;8461573;28;20058;-41
2022/06/14 21:58:48;;;;;;;4.25;2.88;;;24.10;38.90;;;;;;8461153;27;20040;-41
2022/06/14 22:02:50;;;;;;;4.60;2.90;;;24.30;38.80;;;;;;8458660;28;20031;-41
2022/06/14 22:06:50;;;;;;;5.53;2.65;;;24.30;38.70;;;;;;8464599;28;20055;-41
2022/06/14 22:10:52;;;;;;;4.30;3.22;;;24.40;38.60;;;;;;8464245;28;20039;-42
2022/06/14 22:15:02;;;;;;;5.22;3.00;;;24.50;38.60;;;;;;8464245;28;20036;-41
2022/06/14 22:19:02;;;;;;;12.85;3.05;;;24.50;38.60;;;;;;8464174;28;20050;-41
2022/06/14 22:23:03;;;;;;;5.57;2.55;;;24.50;38.60;;;;;;8463807;28;20040;-41
2022/06/14 22:27:04;;;;;;;11.48;3.03;;;24.50;38.60;;;;;;8463978;28;20050;-41
2022/06/14 22:31:05;;;;;;;7.82;3.10;;;24.60;38.70;;;;;;8464057;28;20047;-41
2022/06/14 22:35:11;;;;;;;5.13;2.58;;;24.50;38.60;;;;;;8463447;28;20534;-41
2022/06/14 22:39:12;;;;;;;5.38;2.75;;;24.50;38.60;;;;;;8463767;28;20423;-41
2022/06/14 22:43:12;;;;;;;7.95;2.97;;;24.60;38.70;;;;;;8463060;27;20036;-41
2022/06/14 22:47:15;;;;;;;6.05;3.13;;;24.60;38.80;;;;;;8463496;28;20441;-41
2022/06/14 22:51:16;;;;;;;5.13;2.83;;;24.60;38.80;;;;;;8463749;28;20047;-41
2022/06/14 22:55:21;;;;;;;;;;;24.60;38.80;;;;;;8463441;28;20114;-41
2022/06/14 22:59:22;;;;;;;5.90;2.55;;;24.60;38.90;;;;;;8463776;28;19919;-41
2022/06/14 23:03:23;;;;;;;4.70;2.40;;;24.60;38.90;;;;;;8463523;28;20031;-41